sensor_id;sensor_type;location;lat;lon;timestamp;P1;durP1;ratioP1;P2;durP2;ratioP2
44728;SDS011;30457;53.590;9.922;2023-01-01T00:02:13;22.65;;;20.95;;
44728;SDS011;30457;53.590;9.922;2023-01-01T00:06:39;28.05;;;26.00;;
44728;SDS011;30457;53.590;9.922;2023-01-01T00:11:06;22.25;;;20.65;;
44728;SDS011;30457;53.590;9.922;2023-01-01T00:15:33;23.40;;;21.48;;
44728;SDS011;30457;53.590;9.922;2023-01-01T00:19:58;22.00;;;20.02;;
44728;SDS011;30457;53.590;9.922;2023-01-01T00:24:24;22.00;;;19.92;;
44728;SDS011;30457;53.590;9.922;2023-01-01T00:28:49;23.20;;;21.23;;
44728;SDS011;30457;53.590;9.922;2023-01-01T00:33:15;22.60;;;20.63;;
44728;SDS011;30457;53.590;9.922;2023-01-01T00:37:40;23.35;;;21.40;;
44728;SDS011;30457;53.590;9.922;2023-01-01T00:42:06;24.63;;;22.10;;
44728;SDS011;30457;53.590;9.922;2023-01-01T00:46:31;22.58;;;20.80;;
44728;SDS011;30457;53.590;9.922;2023-01-01T00:50:57;24.60;;;22.48;;
44728;SDS011;30457;53.590;9.922;2023-01-01T00:55:23;23.73;;;21.90;;
44728;SDS011;30457;53.590;9.922;2023-01-01T00:59:48;21.02;;;19.25;;
44728;SDS011;30457;53.590;9.922;2023-01-01T01:04:14;52.25;;;46.83;;
44728;SDS011;30457;53.590;9.922;2023-01-01T01:08:41;45.95;;;39.40;;
44728;SDS011;30457;53.590;9.922;2023-01-01T01:13:08;21.95;;;19.88;;
44728;SDS011;30457;53.590;9.922;2023-01-01T01:17:34;22.95;;;20.63;;
44728;SDS011;30457;53.590;9.922;2023-01-01T01:21:59;22.92;;;20.77;;
44728;SDS011;30457;53.590;9.922;2023-01-01T01:26:29;52.65;;;48.40;;
44728;SDS011;30457;53.590;9.922;2023-01-01T01:30:58;25.88;;;20.38;;
44728;SDS011;30457;53.590;9.922;2023-01-01T01:35:24;21.83;;;19.80;;
44728;SDS011;30457;53.590;9.922;2023-01-01T01:39:49;21.08;;;19.38;;
44728;SDS011;30457;53.590;9.922;2023-01-01T01:49:23;23.98;;;17.85;;
44728;SDS011;30457;53.590;9.922;2023-01-01T01:53:55;18.80;;;17.20;;
44728;SDS011;30457;53.590;9.922;2023-01-01T01:58:25;21.52;;;19.80;;
44728;SDS011;30457;53.590;9.922;2023-01-01T02:02:55;19.95;;;18.58;;
44728;SDS011;30457;53.590;9.922;2023-01-01T02:07:27;25.42;;;18.90;;
44728;SDS011;30457;53.590;9.922;2023-01-01T02:11:55;20.55;;;18.70;;
44728;SDS011;30457;53.590;9.922;2023-01-01T02:21:06;20.55;;;19.05;;
44728;SDS011;30457;53.590;9.922;2023-01-01T02:25:48;19.45;;;18.23;;
44728;SDS011;30457;53.590;9.922;2023-01-01T02:30:36;21.15;;;19.40;;
44728;SDS011;30457;53.590;9.922;2023-01-01T02:35:07;21.23;;;19.60;;
44728;SDS011;30457;53.590;9.922;2023-01-01T02:39:57;21.15;;;19.27;;
44728;SDS011;30457;53.590;9.922;2023-01-01T02:44:24;22.65;;;20.80;;
44728;SDS011;30457;53.590;9.922;2023-01-01T02:48:51;22.25;;;19.98;;
44728;SDS011;30457;53.590;9.922;2023-01-01T02:53:23;22.40;;;20.90;;
44728;SDS011;30457;53.590;9.922;2023-01-01T02:57:58;21.88;;;20.42;;
44728;SDS011;30457;53.590;9.922;2023-01-01T03:03:04;21.05;;;19.65;;
44728;SDS011;30457;53.590;9.922;2023-01-01T03:12:30;23.60;;;21.83;;
44728;SDS011;30457;53.590;9.922;2023-01-01T03:17:06;28.35;;;26.20;;
44728;SDS011;30457;53.590;9.922;2023-01-01T03:21:58;24.17;;;22.38;;
44728;SDS011;30457;53.590;9.922;2023-01-01T03:26:30;22.85;;;21.15;;
44728;SDS011;30457;53.590;9.922;2023-01-01T03:30:59;25.80;;;23.67;;
44728;SDS011;30457;53.590;9.922;2023-01-01T03:35:38;26.33;;;24.25;;
44728;SDS011;30457;53.590;9.922;2023-01-01T03:40:12;25.63;;;23.75;;
44728;SDS011;30457;53.590;9.922;2023-01-01T03:44:49;31.25;;;28.58;;
44728;SDS011;30457;53.590;9.922;2023-01-01T03:49:21;25.55;;;22.88;;
44728;SDS011;30457;53.590;9.922;2023-01-01T03:53:47;25.83;;;23.90;;
44728;SDS011;30457;53.590;9.922;2023-01-01T03:58:30;24.27;;;22.17;;
44728;SDS011;30457;53.590;9.922;2023-01-01T04:03:06;22.73;;;21.13;;
44728;SDS011;30457;53.590;9.922;2023-01-01T04:07:39;27.38;;;22.38;;
44728;SDS011;30457;53.590;9.922;2023-01-01T04:12:05;23.70;;;21.77;;
44728;SDS011;30457;53.590;9.922;2023-01-01T04:16:31;23.60;;;21.75;;
44728;SDS011;30457;53.590;9.922;2023-01-01T04:20:56;23.52;;;21.63;;
44728;SDS011;30457;53.590;9.922;2023-01-01T04:25:22;24.70;;;22.73;;
44728;SDS011;30457;53.590;9.922;2023-01-01T04:29:47;23.83;;;22.00;;
44728;SDS011;30457;53.590;9.922;2023-01-01T04:34:13;25.58;;;23.80;;
44728;SDS011;30457;53.590;9.922;2023-01-01T04:38:39;25.67;;;23.88;;
44728;SDS011;30457;53.590;9.922;2023-01-01T04:43:05;25.65;;;23.52;;
44728;SDS011;30457;53.590;9.922;2023-01-01T04:47:30;23.40;;;21.65;;
44728;SDS011;30457;53.590;9.922;2023-01-01T04:51:56;22.25;;;20.92;;
44728;SDS011;30457;53.590;9.922;2023-01-01T04:56:22;21.92;;;20.58;;
44728;SDS011;30457;53.590;9.922;2023-01-01T05:00:50;22.55;;;21.05;;
44728;SDS011;30457;53.590;9.922;2023-01-01T05:05:16;23.88;;;21.83;;
44728;SDS011;30457;53.590;9.922;2023-01-01T05:09:43;22.58;;;21.00;;
44728;SDS011;30457;53.590;9.922;2023-01-01T05:14:08;25.02;;;23.23;;
44728;SDS011;30457;53.590;9.922;2023-01-01T05:18:35;35.53;;;33.20;;
44728;SDS011;30457;53.590;9.922;2023-01-01T05:23:01;21.90;;;20.50;;
44728;SDS011;30457;53.590;9.922;2023-01-01T05:27:27;20.85;;;19.25;;
44728;SDS011;30457;53.590;9.922;2023-01-01T05:31:52;23.33;;;21.13;;
44728;SDS011;30457;53.590;9.922;2023-01-01T05:36:22;21.42;;;20.08;;
44728;SDS011;30457;53.590;9.922;2023-01-01T05:40:49;21.95;;;20.50;;
44728;SDS011;30457;53.590;9.922;2023-01-01T05:45:15;22.05;;;20.20;;
44728;SDS011;30457;53.590;9.922;2023-01-01T05:49:41;21.20;;;19.27;;
44728;SDS011;30457;53.590;9.922;2023-01-01T05:54:08;20.23;;;18.90;;
44728;SDS011;30457;53.590;9.922;2023-01-01T05:58:34;20.05;;;18.55;;
44728;SDS011;30457;53.590;9.922;2023-01-01T06:03:00;20.60;;;19.40;;
44728;SDS011;30457;53.590;9.922;2023-01-01T06:07:26;21.48;;;20.20;;
44728;SDS011;30457;53.590;9.922;2023-01-01T06:11:51;21.58;;;19.75;;
44728;SDS011;30457;53.590;9.922;2023-01-01T06:16:18;21.90;;;20.48;;
44728;SDS011;30457;53.590;9.922;2023-01-01T06:20:44;20.63;;;19.13;;
44728;SDS011;30457;53.590;9.922;2023-01-01T06:25:10;22.13;;;20.73;;
44728;SDS011;30457;53.590;9.922;2023-01-01T06:29:36;20.08;;;18.55;;
44728;SDS011;30457;53.590;9.922;2023-01-01T06:34:01;20.70;;;19.23;;
44728;SDS011;30457;53.590;9.922;2023-01-01T06:38:29;19.85;;;18.65;;
44728;SDS011;30457;53.590;9.922;2023-01-01T06:42:55;20.25;;;18.95;;
44728;SDS011;30457;53.590;9.922;2023-01-01T06:47:21;20.00;;;18.60;;
44728;SDS011;30457;53.590;9.922;2023-01-01T06:51:46;19.45;;;18.25;;
44728;SDS011;30457;53.590;9.922;2023-01-01T06:56:12;21.02;;;19.80;;
44728;SDS011;30457;53.590;9.922;2023-01-01T07:00:38;18.95;;;17.85;;
44728;SDS011;30457;53.590;9.922;2023-01-01T07:05:03;22.00;;;18.67;;
44728;SDS011;30457;53.590;9.922;2023-01-01T07:09:29;19.42;;;18.05;;
44728;SDS011;30457;53.590;9.922;2023-01-01T07:13:55;21.20;;;19.80;;
44728;SDS011;30457;53.590;9.922;2023-01-01T07:18:21;20.65;;;18.70;;
44728;SDS011;30457;53.590;9.922;2023-01-01T07:22:48;19.73;;;18.17;;
44728;SDS011;30457;53.590;9.922;2023-01-01T07:27:13;19.02;;;17.83;;
44728;SDS011;30457;53.590;9.922;2023-01-01T07:31:39;21.10;;;19.67;;
44728;SDS011;30457;53.590;9.922;2023-01-01T07:36:06;20.55;;;18.85;;
44728;SDS011;30457;53.590;9.922;2023-01-01T07:40:32;20.60;;;19.20;;
44728;SDS011;30457;53.590;9.922;2023-01-01T07:44:58;18.83;;;17.70;;
44728;SDS011;30457;53.590;9.922;2023-01-01T07:49:23;18.88;;;17.67;;
44728;SDS011;30457;53.590;9.922;2023-01-01T07:53:49;18.63;;;17.50;;
44728;SDS011;30457;53.590;9.922;2023-01-01T07:58:15;20.33;;;19.15;;
44728;SDS011;30457;53.590;9.922;2023-01-01T08:02:40;18.80;;;17.58;;
44728;SDS011;30457;53.590;9.922;2023-01-01T08:07:06;19.58;;;18.38;;
44728;SDS011;30457;53.590;9.922;2023-01-01T08:11:32;19.42;;;18.13;;
44728;SDS011;30457;53.590;9.922;2023-01-01T08:15:57;18.80;;;17.60;;
44728;SDS011;30457;53.590;9.922;2023-01-01T08:20:23;18.60;;;17.50;;
44728;SDS011;30457;53.590;9.922;2023-01-01T08:24:50;17.13;;;15.93;;
44728;SDS011;30457;53.590;9.922;2023-01-01T08:29:15;19.73;;;18.48;;
44728;SDS011;30457;53.590;9.922;2023-01-01T08:33:41;18.77;;;17.60;;
44728;SDS011;30457;53.590;9.922;2023-01-01T08:38:07;30.52;;;28.83;;
44728;SDS011;30457;53.590;9.922;2023-01-01T08:42:36;19.13;;;17.50;;
44728;SDS011;30457;53.590;9.922;2023-01-01T08:47:01;17.90;;;16.90;;
44728;SDS011;30457;53.590;9.922;2023-01-01T08:51:27;27.20;;;25.65;;
44728;SDS011;30457;53.590;9.922;2023-01-01T08:55:56;18.70;;;17.55;;
44728;SDS011;30457;53.590;9.922;2023-01-01T09:00:22;17.88;;;16.92;;
44728;SDS011;30457;53.590;9.922;2023-01-01T09:04:48;16.33;;;15.52;;
44728;SDS011;30457;53.590;9.922;2023-01-01T09:09:13;17.50;;;16.50;;
44728;SDS011;30457;53.590;9.922;2023-01-01T09:13:39;17.23;;;16.27;;
44728;SDS011;30457;53.590;9.922;2023-01-01T09:18:04;27.75;;;26.10;;
44728;SDS011;30457;53.590;9.922;2023-01-01T09:22:30;18.27;;;17.05;;
44728;SDS011;30457;53.590;9.922;2023-01-01T09:26:56;19.35;;;18.30;;
44728;SDS011;30457;53.590;9.922;2023-01-01T09:31:22;18.23;;;16.90;;
44728;SDS011;30457;53.590;9.922;2023-01-01T09:35:48;16.35;;;15.50;;
44728;SDS011;30457;53.590;9.922;2023-01-01T09:45:06;17.48;;;16.58;;
44728;SDS011;30457;53.590;9.922;2023-01-01T09:49:43;18.90;;;17.90;;
44728;SDS011;30457;53.590;9.922;2023-01-01T09:54:21;17.17;;;16.17;;
44728;SDS011;30457;53.590;9.922;2023-01-01T09:58:52;18.95;;;17.63;;
44728;SDS011;30457;53.590;9.922;2023-01-01T10:08:07;20.90;;;19.45;;
44728;SDS011;30457;53.590;9.922;2023-01-01T10:12:43;19.25;;;18.27;;
44728;SDS011;30457;53.590;9.922;2023-01-01T10:17:16;18.38;;;17.38;;
44728;SDS011;30457;53.590;9.922;2023-01-01T10:21:47;19.10;;;18.05;;
44728;SDS011;30457;53.590;9.922;2023-01-01T10:26:16;18.23;;;17.05;;
44728;SDS011;30457;53.590;9.922;2023-01-01T10:30:44;17.63;;;16.73;;
44728;SDS011;30457;53.590;9.922;2023-01-01T10:35:11;17.42;;;16.42;;
44728;SDS011;30457;53.590;9.922;2023-01-01T10:39:43;18.33;;;17.35;;
44728;SDS011;30457;53.590;9.922;2023-01-01T10:44:10;18.23;;;16.92;;
44728;SDS011;30457;53.590;9.922;2023-01-01T10:48:37;18.10;;;17.13;;
44728;SDS011;30457;53.590;9.922;2023-01-01T10:53:03;18.05;;;16.95;;
44728;SDS011;30457;53.590;9.922;2023-01-01T10:57:30;18.85;;;17.85;;
44728;SDS011;30457;53.590;9.922;2023-01-01T11:06:50;17.27;;;16.38;;
44728;SDS011;30457;53.590;9.922;2023-01-01T11:11:38;18.50;;;17.17;;
44728;SDS011;30457;53.590;9.922;2023-01-01T11:16:09;17.90;;;16.90;;
44728;SDS011;30457;53.590;9.922;2023-01-01T11:20:36;17.60;;;16.75;;
44728;SDS011;30457;53.590;9.922;2023-01-01T11:25:02;17.35;;;16.33;;
44728;SDS011;30457;53.590;9.922;2023-01-01T11:29:40;18.52;;;17.33;;
44728;SDS011;30457;53.590;9.922;2023-01-01T11:34:14;18.33;;;17.30;;
44728;SDS011;30457;53.590;9.922;2023-01-01T11:38:50;19.05;;;17.65;;
44728;SDS011;30457;53.590;9.922;2023-01-01T11:43:45;20.83;;;19.73;;
44728;SDS011;30457;53.590;9.922;2023-01-01T11:48:19;17.73;;;16.58;;
44728;SDS011;30457;53.590;9.922;2023-01-01T11:52:57;17.05;;;16.13;;
44728;SDS011;30457;53.590;9.922;2023-01-01T11:57:41;18.02;;;17.02;;
44728;SDS011;30457;53.590;9.922;2023-01-01T12:02:35;18.23;;;16.98;;
44728;SDS011;30457;53.590;9.922;2023-01-01T12:07:08;18.08;;;17.15;;
44728;SDS011;30457;53.590;9.922;2023-01-01T12:16:21;17.67;;;16.48;;
44728;SDS011;30457;53.590;9.922;2023-01-01T12:25:44;18.13;;;17.20;;
44728;SDS011;30457;53.590;9.922;2023-01-01T12:34:50;16.60;;;15.65;;
44728;SDS011;30457;53.590;9.922;2023-01-01T12:44:30;17.70;;;16.85;;
44728;SDS011;30457;53.590;9.922;2023-01-01T12:59:14;17.75;;;16.58;;
44728;SDS011;30457;53.590;9.922;2023-01-01T13:08:23;18.23;;;17.23;;
44728;SDS011;30457;53.590;9.922;2023-01-01T13:12:50;19.08;;;18.08;;
44728;SDS011;30457;53.590;9.922;2023-01-01T13:17:35;17.52;;;16.67;;
44728;SDS011;30457;53.590;9.922;2023-01-01T13:22:27;18.00;;;16.98;;
44728;SDS011;30457;53.590;9.922;2023-01-01T13:26:49;20.33;;;19.23;;
44728;SDS011;30457;53.590;9.922;2023-01-01T13:31:15;20.00;;;18.98;;
44728;SDS011;30457;53.590;9.922;2023-01-01T13:35:41;18.80;;;17.75;;
44728;SDS011;30457;53.590;9.922;2023-01-01T13:44:35;19.38;;;18.13;;
44728;SDS011;30457;53.590;9.922;2023-01-01T13:54:14;19.85;;;18.73;;
44728;SDS011;30457;53.590;9.922;2023-01-01T13:58:56;22.38;;;21.13;;
44728;SDS011;30457;53.590;9.922;2023-01-01T14:03:26;21.50;;;20.27;;
44728;SDS011;30457;53.590;9.922;2023-01-01T14:07:53;21.40;;;19.85;;
44728;SDS011;30457;53.590;9.922;2023-01-01T14:12:20;21.63;;;20.17;;
44728;SDS011;30457;53.590;9.922;2023-01-01T14:16:46;23.20;;;21.27;;
44728;SDS011;30457;53.590;9.922;2023-01-01T14:21:18;20.15;;;18.75;;
44728;SDS011;30457;53.590;9.922;2023-01-01T14:25:46;23.30;;;21.88;;
44728;SDS011;30457;53.590;9.922;2023-01-01T14:30:15;22.90;;;21.58;;
44728;SDS011;30457;53.590;9.922;2023-01-01T14:34:42;21.75;;;20.38;;
44728;SDS011;30457;53.590;9.922;2023-01-01T14:39:18;21.85;;;20.35;;
44728;SDS011;30457;53.590;9.922;2023-01-01T14:43:52;20.92;;;19.80;;
44728;SDS011;30457;53.590;9.922;2023-01-01T14:48:21;22.77;;;21.35;;
44728;SDS011;30457;53.590;9.922;2023-01-01T14:52:51;20.42;;;19.40;;
44728;SDS011;30457;53.590;9.922;2023-01-01T14:57:26;22.20;;;20.98;;
44728;SDS011;30457;53.590;9.922;2023-01-01T15:02:36;22.33;;;20.63;;
44728;SDS011;30457;53.590;9.922;2023-01-01T15:06:59;24.42;;;22.85;;
44728;SDS011;30457;53.590;9.922;2023-01-01T15:11:25;23.20;;;21.70;;
44728;SDS011;30457;53.590;9.922;2023-01-01T15:15:52;23.80;;;22.23;;
44728;SDS011;30457;53.590;9.922;2023-01-01T15:20:20;23.30;;;21.92;;
44728;SDS011;30457;53.590;9.922;2023-01-01T15:24:47;24.15;;;22.45;;
44728;SDS011;30457;53.590;9.922;2023-01-01T15:29:21;22.60;;;21.17;;
44728;SDS011;30457;53.590;9.922;2023-01-01T15:33:53;25.58;;;24.13;;
44728;SDS011;30457;53.590;9.922;2023-01-01T15:38:19;22.23;;;21.10;;
44728;SDS011;30457;53.590;9.922;2023-01-01T15:47:18;23.13;;;21.75;;
44728;SDS011;30457;53.590;9.922;2023-01-01T15:51:50;23.73;;;22.05;;
44728;SDS011;30457;53.590;9.922;2023-01-01T15:56:22;24.25;;;22.95;;
44728;SDS011;30457;53.590;9.922;2023-01-01T16:00:53;25.92;;;24.20;;
44728;SDS011;30457;53.590;9.922;2023-01-01T16:05:24;28.05;;;25.63;;
44728;SDS011;30457;53.590;9.922;2023-01-01T16:09:51;24.60;;;22.98;;
44728;SDS011;30457;53.590;9.922;2023-01-01T16:14:18;24.13;;;22.80;;
44728;SDS011;30457;53.590;9.922;2023-01-01T16:18:44;24.17;;;22.67;;
44728;SDS011;30457;53.590;9.922;2023-01-01T16:23:10;23.63;;;22.40;;
44728;SDS011;30457;53.590;9.922;2023-01-01T16:27:36;23.17;;;21.70;;
44728;SDS011;30457;53.590;9.922;2023-01-01T16:32:02;24.20;;;22.83;;
44728;SDS011;30457;53.590;9.922;2023-01-01T16:36:28;24.15;;;22.80;;
44728;SDS011;30457;53.590;9.922;2023-01-01T16:40:53;26.92;;;25.25;;
44728;SDS011;30457;53.590;9.922;2023-01-01T16:45:19;26.15;;;24.60;;
44728;SDS011;30457;53.590;9.922;2023-01-01T16:49:45;25.80;;;24.15;;
44728;SDS011;30457;53.590;9.922;2023-01-01T16:54:10;27.63;;;25.88;;
44728;SDS011;30457;53.590;9.922;2023-01-01T16:58:36;24.13;;;22.60;;
44728;SDS011;30457;53.590;9.922;2023-01-01T17:03:02;27.33;;;25.63;;
44728;SDS011;30457;53.590;9.922;2023-01-01T17:07:28;27.75;;;26.15;;
44728;SDS011;30457;53.590;9.922;2023-01-01T17:11:53;27.08;;;25.67;;
44728;SDS011;30457;53.590;9.922;2023-01-01T17:16:19;26.05;;;24.45;;
44728;SDS011;30457;53.590;9.922;2023-01-01T17:20:45;25.88;;;24.27;;
44728;SDS011;30457;53.590;9.922;2023-01-01T17:25:11;25.73;;;24.00;;
44728;SDS011;30457;53.590;9.922;2023-01-01T17:29:37;25.38;;;23.98;;
44728;SDS011;30457;53.590;9.922;2023-01-01T17:34:02;26.05;;;24.65;;
44728;SDS011;30457;53.590;9.922;2023-01-01T17:38:28;26.77;;;25.13;;
44728;SDS011;30457;53.590;9.922;2023-01-01T17:42:54;28.70;;;26.80;;
44728;SDS011;30457;53.590;9.922;2023-01-01T17:47:20;27.60;;;25.83;;
44728;SDS011;30457;53.590;9.922;2023-01-01T17:51:46;26.38;;;24.52;;
44728;SDS011;30457;53.590;9.922;2023-01-01T17:56:12;26.58;;;24.75;;
44728;SDS011;30457;53.590;9.922;2023-01-01T18:00:39;26.95;;;25.25;;
44728;SDS011;30457;53.590;9.922;2023-01-01T18:05:04;27.67;;;26.02;;
44728;SDS011;30457;53.590;9.922;2023-01-01T18:09:30;27.85;;;26.08;;
44728;SDS011;30457;53.590;9.922;2023-01-01T18:13:56;29.73;;;27.75;;
44728;SDS011;30457;53.590;9.922;2023-01-01T18:18:23;28.63;;;26.90;;
44728;SDS011;30457;53.590;9.922;2023-01-01T18:22:51;28.33;;;26.55;;
44728;SDS011;30457;53.590;9.922;2023-01-01T18:27:17;28.38;;;26.77;;
44728;SDS011;30457;53.590;9.922;2023-01-01T18:31:42;28.20;;;26.15;;
44728;SDS011;30457;53.590;9.922;2023-01-01T18:36:09;27.73;;;25.80;;
44728;SDS011;30457;53.590;9.922;2023-01-01T18:40:40;28.85;;;27.05;;
44728;SDS011;30457;53.590;9.922;2023-01-01T18:45:15;29.88;;;27.88;;
44728;SDS011;30457;53.590;9.922;2023-01-01T18:49:43;28.60;;;26.98;;
44728;SDS011;30457;53.590;9.922;2023-01-01T18:54:12;28.25;;;26.55;;
44728;SDS011;30457;53.590;9.922;2023-01-01T18:58:41;29.85;;;28.13;;
44728;SDS011;30457;53.590;9.922;2023-01-01T19:03:15;28.90;;;27.05;;
44728;SDS011;30457;53.590;9.922;2023-01-01T19:07:55;29.52;;;27.65;;
44728;SDS011;30457;53.590;9.922;2023-01-01T19:12:41;28.58;;;26.77;;
44728;SDS011;30457;53.590;9.922;2023-01-01T19:17:12;33.25;;;31.52;;
44728;SDS011;30457;53.590;9.922;2023-01-01T19:21:41;29.75;;;27.65;;
44728;SDS011;30457;53.590;9.922;2023-01-01T19:26:10;27.10;;;25.67;;
44728;SDS011;30457;53.590;9.922;2023-01-01T19:35:08;26.80;;;25.00;;
44728;SDS011;30457;53.590;9.922;2023-01-01T19:39:34;29.40;;;27.73;;
44728;SDS011;30457;53.590;9.922;2023-01-01T19:44:00;33.55;;;31.30;;
44728;SDS011;30457;53.590;9.922;2023-01-01T19:48:26;30.33;;;28.80;;
44728;SDS011;30457;53.590;9.922;2023-01-01T19:52:53;29.38;;;27.70;;
44728;SDS011;30457;53.590;9.922;2023-01-01T19:57:18;30.20;;;28.50;;
44728;SDS011;30457;53.590;9.922;2023-01-01T20:01:44;29.08;;;27.38;;
44728;SDS011;30457;53.590;9.922;2023-01-01T20:06:10;32.47;;;30.67;;
44728;SDS011;30457;53.590;9.922;2023-01-01T20:10:36;29.48;;;27.88;;
44728;SDS011;30457;53.590;9.922;2023-01-01T20:15:01;29.85;;;27.85;;
44728;SDS011;30457;53.590;9.922;2023-01-01T20:19:27;27.90;;;26.40;;
44728;SDS011;30457;53.590;9.922;2023-01-01T20:23:53;31.00;;;29.27;;
44728;SDS011;30457;53.590;9.922;2023-01-01T20:28:19;28.73;;;27.20;;
44728;SDS011;30457;53.590;9.922;2023-01-01T20:33:04;29.90;;;28.13;;
44728;SDS011;30457;53.590;9.922;2023-01-01T20:37:29;30.25;;;28.52;;
44728;SDS011;30457;53.590;9.922;2023-01-01T20:42:01;30.75;;;29.00;;
44728;SDS011;30457;53.590;9.922;2023-01-01T20:46:27;30.90;;;29.02;;
44728;SDS011;30457;53.590;9.922;2023-01-01T20:50:56;29.95;;;28.05;;
44728;SDS011;30457;53.590;9.922;2023-01-01T20:55:21;29.58;;;27.77;;
44728;SDS011;30457;53.590;9.922;2023-01-01T20:59:47;30.20;;;28.52;;
44728;SDS011;30457;53.590;9.922;2023-01-01T21:04:12;30.50;;;28.83;;
44728;SDS011;30457;53.590;9.922;2023-01-01T21:08:38;32.22;;;30.38;;
44728;SDS011;30457;53.590;9.922;2023-01-01T21:13:04;31.88;;;29.88;;
44728;SDS011;30457;53.590;9.922;2023-01-01T21:17:30;32.53;;;30.63;;
44728;SDS011;30457;53.590;9.922;2023-01-01T21:21:57;31.08;;;29.33;;
44728;SDS011;30457;53.590;9.922;2023-01-01T21:26:27;33.65;;;31.55;;
44728;SDS011;30457;53.590;9.922;2023-01-01T21:30:58;32.65;;;30.58;;
44728;SDS011;30457;53.590;9.922;2023-01-01T21:35:28;35.25;;;33.22;;
44728;SDS011;30457;53.590;9.922;2023-01-01T21:40:19;33.97;;;31.73;;
44728;SDS011;30457;53.590;9.922;2023-01-01T21:44:50;30.60;;;28.45;;
44728;SDS011;30457;53.590;9.922;2023-01-01T21:49:21;32.25;;;30.05;;
44728;SDS011;30457;53.590;9.922;2023-01-01T21:54:00;31.27;;;29.48;;
44728;SDS011;30457;53.590;9.922;2023-01-01T22:03:20;32.33;;;30.50;;
44728;SDS011;30457;53.590;9.922;2023-01-01T22:07:46;33.15;;;31.00;;
44728;SDS011;30457;53.590;9.922;2023-01-01T22:16:38;32.80;;;31.00;;
44728;SDS011;30457;53.590;9.922;2023-01-01T22:21:04;33.47;;;31.38;;
44728;SDS011;30457;53.590;9.922;2023-01-01T22:25:36;32.10;;;30.23;;
44728;SDS011;30457;53.590;9.922;2023-01-01T22:30:25;32.28;;;30.30;;
44728;SDS011;30457;53.590;9.922;2023-01-01T22:35:05;32.88;;;30.98;;
44728;SDS011;30457;53.590;9.922;2023-01-01T22:39:38;32.30;;;30.52;;
44728;SDS011;30457;53.590;9.922;2023-01-01T22:44:04;30.88;;;29.17;;
44728;SDS011;30457;53.590;9.922;2023-01-01T22:48:31;32.03;;;30.13;;
44728;SDS011;30457;53.590;9.922;2023-01-01T22:53:00;31.52;;;29.73;;
44728;SDS011;30457;53.590;9.922;2023-01-01T22:57:26;31.55;;;29.88;;
44728;SDS011;30457;53.590;9.922;2023-01-01T23:01:51;29.92;;;28.33;;
44728;SDS011;30457;53.590;9.922;2023-01-01T23:06:17;33.78;;;31.77;;
44728;SDS011;30457;53.590;9.922;2023-01-01T23:10:43;30.15;;;28.58;;
44728;SDS011;30457;53.590;9.922;2023-01-01T23:15:09;32.78;;;31.05;;
44728;SDS011;30457;53.590;9.922;2023-01-01T23:19:53;30.95;;;28.90;;
44728;SDS011;30457;53.590;9.922;2023-01-01T23:24:22;29.88;;;28.33;;
44728;SDS011;30457;53.590;9.922;2023-01-01T23:28:48;30.83;;;29.17;;
44728;SDS011;30457;53.590;9.922;2023-01-01T23:33:14;32.83;;;30.85;;
44728;SDS011;30457;53.590;9.922;2023-01-01T23:37:41;29.38;;;27.77;;
44728;SDS011;30457;53.590;9.922;2023-01-01T23:42:06;32.33;;;30.42;;
44728;SDS011;30457;53.590;9.922;2023-01-01T23:46:32;32.10;;;30.40;;
44728;SDS011;30457;53.590;9.922;2023-01-01T23:51:00;33.85;;;31.80;;
44728;SDS011;30457;53.590;9.922;2023-01-01T23:55:26;31.77;;;29.98;;
44728;SDS011;30457;53.590;9.922;2023-01-01T23:59:52;31.80;;;30.20;;
